Time;durP1;ratioP1;P1;durP2;ratioP2;P2;SDS_P1;SDS_P2;PMS_P1;PMS_P2;Temp;Humidity;BMP_temperature;BMP_pressure;BME280_temperature;BME280_humidity;BME280_pressure;Samples;Min_cycle;Max_cycle;Signal;HPM_P1;HPM_P2
2023/05/14 00:01:27;;;;;;;0.20;0.20;;;12.30;99.90;;;;;;5089648;28;20055;-77
2023/05/14 00:03:53;;;;;;;0.20;0.20;;;12.30;99.90;;;;;;5087611;28;20020;-77
2023/05/14 00:06:20;;;;;;;0.20;0.20;;;12.30;99.90;;;;;;5089182;28;20410;-80
2023/05/14 00:08:46;;;;;;;0.20;0.20;;;12.30;99.90;;;;;;5086386;28;20444;-75
2023/05/14 00:11:11;;;;;;;0.20;0.20;;;12.30;99.90;;;;;;5082258;28;20555;-80
2023/05/14 00:13:37;;;;;;;0.20;0.20;;;12.40;99.90;;;;;;5079477;28;20059;-74
2023/05/14 00:16:03;;;;;;;0.20;0.20;;;12.30;99.90;;;;;;5080139;28;20081;-81
2023/05/14 00:18:29;;;;;;;0.20;0.20;;;12.40;99.90;;;;;;5080278;28;20085;-82
2023/05/14 00:20:55;;;;;;;0.20;0.20;;;12.30;99.90;;;;;;5079523;28;20506;-82
2023/05/14 00:23:23;;;;;;;0.20;0.20;;;12.30;99.90;;;;;;5079514;28;20025;-75
2023/05/14 00:25:49;;;;;;;0.20;0.20;;;12.20;99.90;;;;;;5084989;28;20085;-79
2023/05/14 00:28:15;;;;;;;1.10;1.10;;;12.20;99.90;;;;;;5085703;28;20036;-79
2023/05/14 00:30:41;;;;;;;0.10;0.10;;;12.20;99.90;;;;;;5083679;28;20023;-76
2023/05/14 00:33:07;;;;;;;0.68;0.68;;;12.20;99.90;;;;;;5083776;28;20020;-76
2023/05/14 00:35:36;;;;;;;0.20;0.20;;;12.20;99.90;;;;;;5081736;28;20389;-75
2023/05/14 00:38:02;;;;;;;0.20;0.20;;;11.90;99.90;;;;;;5081169;28;20039;-73
2023/05/14 00:40:29;;;;;;;0.20;0.20;;;12.10;99.90;;;;;;5082499;28;20084;-74
2023/05/14 00:42:55;;;;;;;0.20;0.20;;;12.10;99.90;;;;;;5080855;28;20024;-78
2023/05/14 00:45:22;;;;;;;0.20;0.20;;;12.10;99.90;;;;;;5081473;28;20024;-74
2023/05/14 00:47:52;;;;;;;0.20;0.20;;;10.20;99.90;;;;;;5081518;28;20104;-77
2023/05/14 00:50:17;;;;;;;0.10;0.10;;;12.10;99.90;;;;;;5099435;28;20030;-75
2023/05/14 00:52:44;;;;;;;0.20;0.20;;;12.20;99.90;;;;;;5089574;28;20024;-75
2023/05/14 00:55:17;;;;;;;0.20;0.20;;;12.10;99.90;;;;;;5090986;28;20468;-76
2023/05/14 00:57:44;;;;;;;0.10;0.10;;;12.20;99.90;;;;;;5085165;28;20750;-76
2023/05/14 01:00:14;;;;;;;0.10;0.10;;;12.20;99.90;;;;;;5080983;28;20514;-77
2023/05/14 01:02:40;;;;;;;0.20;0.20;;;12.10;99.90;;;;;;5082958;28;20067;-73
2023/05/14 01:05:08;;;;;;;0.20;0.20;;;12.10;99.90;;;;;;5080235;28;20013;-75
2023/05/14 01:07:42;;;;;;;0.20;0.20;;;11.70;99.90;;;;;;5080276;28;20032;-75
2023/05/14 01:10:16;;;;;;;0.20;0.20;;;12.10;99.90;;;;;;5078366;28;20027;-82
2023/05/14 01:13:09;;;;;;;0.20;0.20;;;12.10;99.90;;;;;;5081058;28;20709;-76
2023/05/14 01:15:38;;;;;;;0.20;0.20;;;12.10;99.90;;;;;;5080039;28;20046;-73
2023/05/14 01:18:07;;;;;;;0.20;0.20;;;13.40;99.90;;;;;;5080419;28;20013;-76
2023/05/14 01:20:33;;;;;;;0.20;0.20;;;12.10;99.90;;;;;;5080962;28;20016;-76
2023/05/14 01:22:59;;;;;;;0.20;0.20;;;12.10;99.90;;;;;;5087110;28;20039;-76
2023/05/14 01:25:25;;;;;;;0.20;0.20;;;12.10;99.90;;;;;;5087366;28;20090;-78
2023/05/14 01:28:05;;;;;;;0.20;0.20;;;12.20;99.90;;;;;;5087788;28;20036;-78
2023/05/14 01:30:39;;;;;;;0.20;0.20;;;12.10;99.90;;;;;;5084148;28;20033;-80
2023/05/14 01:33:12;;;;;;;0.20;0.20;;;12.10;99.90;;;;;;5083114;28;20020;-75
2023/05/14 01:35:39;;;;;;;0.20;0.20;;;12.00;99.90;;;;;;5081083;28;20031;-77
2023/05/14 01:38:08;;;;;;;0.20;0.20;;;12.00;99.90;;;;;;5082415;28;20024;-74
2023/05/14 01:40:40;;;;;;;0.10;0.10;;;12.00;99.90;;;;;;5085403;28;20020;-80
2023/05/14 01:43:07;;;;;;;0.20;0.20;;;12.00;99.90;;;;;;5086594;28;20331;-73
2023/05/14 01:45:35;;;;;;;0.50;0.50;;;11.90;99.90;;;;;;5083792;28;20486;-74
2023/05/14 01:48:03;;;;;;;0.68;0.65;;;11.90;99.90;;;;;;5081281;28;20040;-78
2023/05/14 01:50:29;;;;;;;0.17;0.17;;;11.90;99.90;;;;;;5084247;28;20056;-74
2023/05/14 01:52:55;;;;;;;0.20;0.20;;;11.80;99.90;;;;;;5081893;28;20060;-74
2023/05/14 01:55:24;;;;;;;0.20;0.20;;;11.80;99.90;;;;;;5090862;28;20075;-75
2023/05/14 01:57:56;;;;;;;0.20;0.20;;;11.80;99.90;;;;;;5090209;28;20320;-73
2023/05/14 02:00:24;;;;;;;0.13;0.13;;;11.90;99.90;;;;;;5084547;28;20032;-76
2023/05/14 02:02:49;;;;;;;0.20;0.20;;;11.80;99.90;;;;;;5088576;28;20016;-74
2023/05/14 02:05:16;;;;;;;0.15;0.15;;;11.90;99.90;;;;;;5088818;28;20506;-74
2023/05/14 02:07:46;;;;;;;0.20;0.20;;;11.80;99.90;;;;;;5084917;28;20522;-74
2023/05/14 02:10:13;;;;;;;0.20;0.20;;;11.80;99.90;;;;;;5083933;28;20498;-75
2023/05/14 02:12:39;;;;;;;0.20;0.20;;;11.80;99.90;;;;;;5086244;28;20031;-75
2023/05/14 02:15:05;;;;;;;0.20;0.20;;;11.80;99.90;;;;;;5088281;28;20028;-74
2023/05/14 02:17:31;;;;;;;0.15;0.15;;;11.80;99.90;;;;;;5096735;28;20300;-75
2023/05/14 02:19:57;;;;;;;1.67;1.65;;;11.80;99.90;;;;;;5103480;28;20054;-75
2023/05/14 02:22:22;;;;;;;0.20;0.20;;;11.80;99.90;;;;;;5105460;28;20475;-74
2023/05/14 02:24:50;;;;;;;0.20;0.20;;;11.80;99.90;;;;;;5105811;28;20478;-75
2023/05/14 02:27:15;;;;;;;0.20;0.20;;;11.80;99.90;;;;;;5106668;28;20028;-74
2023/05/14 02:29:41;;;;;;;0.20;0.20;;;11.70;99.90;;;;;;5104899;28;20024;-73
2023/05/14 02:32:16;;;;;;;0.20;0.20;;;11.70;99.90;;;;;;5092910;28;20028;-75
2023/05/14 02:34:48;;;;;;;0.20;0.20;;;11.80;99.90;;;;;;5104274;28;20016;-74
2023/05/14 02:37:13;;;;;;;0.20;0.20;;;11.70;99.90;;;;;;5103183;28;20027;-74
2023/05/14 02:39:39;;;;;;;0.10;0.10;;;11.70;99.90;;;;;;5098299;28;20024;-74
2023/05/14 02:42:05;;;;;;;0.20;0.20;;;11.70;99.90;;;;;;5097345;28;20025;-75
2023/05/14 02:44:31;;;;;;;0.20;0.20;;;11.70;99.90;;;;;;5100046;28;20350;-73
2023/05/14 02:46:57;;;;;;;0.20;0.20;;;11.70;99.90;;;;;;5097599;28;20707;-76
2023/05/14 02:49:23;;;;;;;0.20;0.20;;;11.70;99.90;;;;;;5094520;28;20027;-75
2023/05/14 02:51:49;;;;;;;0.20;0.20;;;11.70;99.90;;;;;;5097270;28;20024;-75
2023/05/14 02:54:15;;;;;;;0.20;0.20;;;11.70;99.90;;;;;;5089060;28;20061;-74
2023/05/14 02:56:41;;;;;;;0.20;0.20;;;11.70;99.90;;;;;;5084700;28;20316;-75
2023/05/14 02:59:07;;;;;;;0.20;0.20;;;11.70;99.90;;;;;;5094855;28;20079;-77
2023/05/14 03:01:32;;;;;;;0.20;0.20;;;11.80;99.90;;;;;;5095432;28;20028;-74
2023/05/14 03:03:58;;;;;;;0.20;0.20;;;11.80;99.90;;;;;;5090780;28;20049;-76
2023/05/14 03:06:24;;;;;;;0.20;0.20;;;11.70;99.90;;;;;;5097214;28;20024;-75
2023/05/14 03:08:50;;;;;;;0.20;0.20;;;11.70;99.90;;;;;;5099161;28;20156;-75
2023/05/14 03:11:15;;;;;;;0.20;0.20;;;11.80;99.90;;;;;;5108664;28;20085;-74
2023/05/14 03:13:41;;;;;;;0.20;0.20;;;11.70;99.90;;;;;;5107018;28;20111;-75
2023/05/14 03:16:07;;;;;;;0.20;0.20;;;11.70;99.90;;;;;;5108366;28;20043;-74
2023/05/14 03:18:34;;;;;;;0.20;0.20;;;11.70;99.90;;;;;;5106434;28;20093;-74
2023/05/14 03:21:01;;;;;;;0.20;0.20;;;11.70;99.90;;;;;;5107001;28;20425;-74
2023/05/14 03:23:27;;;;;;;0.20;0.20;;;11.70;99.90;;;;;;5097529;28;20024;-76
2023/05/14 03:25:52;;;;;;;0.20;0.20;;;11.70;99.90;;;;;;5085785;28;20020;-73
2023/05/14 03:28:18;;;;;;;0.20;0.20;;;11.70;99.90;;;;;;5099818;28;20054;-75
2023/05/14 03:30:45;;;;;;;0.20;0.20;;;11.70;99.90;;;;;;5111688;28;20019;-73
2023/05/14 03:33:14;;;;;;;0.20;0.20;;;11.70;99.90;;;;;;5104939;28;20058;-74
2023/05/14 03:35:39;;;;;;;0.20;0.20;;;11.70;99.90;;;;;;5107754;28;20051;-79
2023/05/14 03:38:05;;;;;;;0.10;0.10;;;11.70;99.90;;;;;;5099049;28;20027;-74
2023/05/14 03:40:31;;;;;;;0.20;0.20;;;11.70;99.90;;;;;;5087343;28;20008;-76
2023/05/14 03:42:56;;;;;;;0.20;0.20;;;11.70;99.90;;;;;;5101656;28;20039;-75
2023/05/14 03:45:22;;;;;;;0.20;0.20;;;11.70;99.90;;;;;;5094482;28;20558;-75
2023/05/14 03:47:48;;;;;;;0.20;0.20;;;11.70;99.90;;;;;;5093104;28;20035;-75
2023/05/14 03:50:14;;;;;;;0.10;0.10;;;11.70;99.90;;;;;;5104036;28;20179;-74
2023/05/14 03:52:44;;;;;;;0.20;0.20;;;11.70;99.90;;;;;;5088744;28;20028;-74
2023/05/14 03:55:11;;;;;;;0.13;0.13;;;11.70;99.90;;;;;;5084462;28;20052;-73
2023/05/14 03:57:36;;;;;;;0.63;0.63;;;11.70;99.90;;;;;;5084996;28;20028;-74
2023/05/14 04:00:03;;;;;;;0.20;0.20;;;12.50;99.90;;;;;;5092041;28;20474;-74
2023/05/14 04:02:29;;;;;;;0.20;0.20;;;11.70;99.90;;;;;;5088253;28;20111;-73
2023/05/14 04:04:55;;;;;;;0.10;0.10;;;11.70;99.90;;;;;;5106356;28;20028;-74
2023/05/14 04:07:21;;;;;;;0.20;0.20;;;11.70;99.90;;;;;;5104821;28;20058;-74
2023/05/14 04:09:46;;;;;;;0.20;0.20;;;11.70;99.90;;;;;;5099505;28;20547;-74
2023/05/14 04:12:12;;;;;;;0.20;0.20;;;11.70;99.90;;;;;;5097063;28;20016;-76
2023/05/14 04:14:38;;;;;;;0.20;0.20;;;11.70;99.90;;;;;;5092482;28;20081;-77
2023/05/14 04:17:04;;;;;;;0.20;0.20;;;11.70;99.90;;;;;;5083433;28;20020;-75
2023/05/14 04:19:29;;;;;;;0.20;0.20;;;11.70;99.90;;;;;;5089806;28;20016;-76
2023/05/14 04:21:55;;;;;;;0.20;0.20;;;11.70;99.90;;;;;;5100514;28;20020;-75
2023/05/14 04:24:21;;;;;;;0.20;0.20;;;11.80;99.90;;;;;;5099254;28;20024;-77
2023/05/14 04:26:46;;;;;;;0.20;0.20;;;11.80;99.90;;;;;;5103315;28;20016;-76
2023/05/14 04:29:12;;;;;;;0.20;0.20;;;11.80;99.90;;;;;;5099305;28;20024;-81
2023/05/14 04:31:38;;;;;;;0.20;0.20;;;11.80;99.90;;;;;;5094846;28;20020;-74
2023/05/14 04:34:05;;;;;;;0.20;0.20;;;11.90;99.90;;;;;;5096671;28;20059;-83
2023/05/14 04:36:31;;;;;;;0.20;0.20;;;11.90;99.90;;;;;;5092276;28;20020;-81
2023/05/14 04:38:58;;;;;;;1.20;1.05;;;11.80;99.90;;;;;;5100121;28;20023;-75
2023/05/14 04:41:29;;;;;;;0.20;0.20;;;11.80;99.90;;;;;;5098320;28;20062;-75
2023/05/14 04:43:55;;;;;;;0.20;0.20;;;11.80;99.90;;;;;;5091903;28;20693;-74
2023/05/14 04:46:22;;;;;;;0.20;0.20;;;11.80;99.90;;;;;;5095751;28;20036;-74
2023/05/14 04:48:51;;;;;;;0.20;0.20;;;11.80;99.90;;;;;;5100429;28;20094;-73
2023/05/14 04:51:17;;;;;;;0.20;0.20;;;11.80;99.90;;;;;;5100067;28;20023;-74
2023/05/14 04:53:51;;;;;;;0.20;0.20;;;11.80;99.90;;;;;;5093539;28;20170;-82
2023/05/14 04:56:16;;;;;;;0.20;0.20;;;11.80;99.90;;;;;;5084004;28;20040;-74
2023/05/14 04:58:42;;;;;;;0.20;0.20;;;11.80;99.90;;;;;;5101680;28;20028;-74
2023/05/14 05:01:12;;;;;;;0.20;0.20;;;11.80;99.90;;;;;;5095338;28;20016;-76
2023/05/14 05:03:43;;;;;;;0.20;0.20;;;11.90;99.90;;;;;;5088824;28;20012;-75
2023/05/14 05:06:15;;;;;;;0.20;0.20;;;11.90;99.90;;;;;;5100891;28;20279;-78
2023/05/14 05:08:41;;;;;;;0.17;0.17;;;11.90;99.90;;;;;;5081508;28;20105;-74
2023/05/14 05:11:07;;;;;;;0.20;0.20;;;11.90;99.90;;;;;;5079056;28;20020;-81
2023/05/14 05:13:32;;;;;;;0.20;0.20;;;12.00;99.90;;;;;;5081653;28;20016;-77
2023/05/14 05:15:58;;;;;;;0.20;0.20;;;12.00;99.90;;;;;;5084508;28;20700;-78
2023/05/14 05:18:24;;;;;;;0.20;0.20;;;12.10;99.90;;;;;;5083019;28;20653;-77
2023/05/14 05:20:51;;;;;;;0.13;0.13;;;12.10;99.90;;;;;;5082606;28;20119;-79
2023/05/14 05:23:16;;;;;;;0.10;0.10;;;12.20;99.90;;;;;;5082860;28;20040;-84
2023/05/14 05:25:42;;;;;;;0.20;0.20;;;12.20;99.90;;;;;;5081433;28;20761;-75
2023/05/14 05:28:08;;;;;;;0.20;0.20;;;12.30;99.90;;;;;;5080350;28;20032;-74
2023/05/14 05:30:34;;;;;;;0.10;0.10;;;12.40;99.90;;;;;;5079766;28;20552;-74
2023/05/14 05:32:59;;;;;;;0.22;0.22;;;12.40;99.90;;;;;;5081746;28;20028;-78
2023/05/14 05:35:28;;;;;;;0.20;0.20;;;12.40;99.90;;;;;;5088464;28;20042;-79
2023/05/14 05:37:54;;;;;;;0.20;0.20;;;12.40;99.90;;;;;;5087177;28;20030;-79
2023/05/14 05:40:19;;;;;;;0.20;0.20;;;12.50;99.90;;;;;;5086118;28;20661;-77
2023/05/14 05:42:45;;;;;;;0.22;0.22;;;12.50;99.90;;;;;;5083620;28;20048;-76
2023/05/14 05:45:11;;;;;;;0.20;0.20;;;12.40;99.90;;;;;;5088377;28;20135;-81
2023/05/14 05:47:36;;;;;;;0.20;0.20;;;12.40;99.90;;;;;;5084835;28;20043;-82
2023/05/14 05:50:02;;;;;;;0.20;0.20;;;12.00;99.90;;;;;;5080973;28;20016;-85
2023/05/14 05:52:28;;;;;;;0.10;0.10;;;12.40;99.90;;;;;;5084670;28;20020;-84
2023/05/14 05:54:54;;;;;;;0.20;0.20;;;12.40;99.90;;;;;;5085191;28;20062;-79
2023/05/14 05:57:22;;;;;;;0.20;0.20;;;12.50;99.90;;;;;;5085689;28;20024;-82
2023/05/14 05:59:48;;;;;;;0.20;0.20;;;12.50;99.90;;;;;;5084185;28;20055;-85
2023/05/14 06:02:13;;;;;;;0.20;0.20;;;12.60;99.90;;;;;;5082400;28;20051;-75
2023/05/14 06:04:39;;;;;;;0.20;0.20;;;12.70;99.90;;;;;;5082421;28;20020;-85
2023/05/14 06:07:05;;;;;;;0.20;0.20;;;12.70;99.90;;;;;;5080901;28;20036;-82
2023/05/14 06:09:30;;;;;;;0.20;0.20;;;12.80;99.90;;;;;;5082351;28;20020;-80
2023/05/14 06:11:56;;;;;;;0.20;0.20;;;12.80;99.90;;;;;;5082380;28;20119;-78
2023/05/14 06:14:22;;;;;;;0.10;0.10;;;12.90;99.90;;;;;;5081712;28;20654;-77
2023/05/14 06:16:48;;;;;;;0.15;0.15;;;13.00;99.90;;;;;;5081841;28;20031;-73
2023/05/14 06:19:13;;;;;;;0.20;0.20;;;13.00;99.90;;;;;;5080388;28;20122;-79
2023/05/14 06:21:39;;;;;;;0.20;0.20;;;13.00;99.90;;;;;;5082666;28;20053;-80
2023/05/14 06:24:06;;;;;;;2.78;2.67;;;13.00;99.90;;;;;;5082301;28;20677;-80
2023/05/14 06:26:32;;;;;;;0.20;0.20;;;13.00;99.90;;;;;;5081735;28;20553;-81
2023/05/14 06:28:58;;;;;;;0.20;0.20;;;13.10;99.90;;;;;;5082323;28;20032;-82
2023/05/14 06:31:23;;;;;;;0.20;0.20;;;13.10;99.90;;;;;;5082058;28;20506;-84
2023/05/14 06:33:49;;;;;;;0.20;0.20;;;13.00;99.90;;;;;;5081812;28;20073;-76
2023/05/14 06:36:15;;;;;;;0.20;0.20;;;13.00;99.90;;;;;;5082014;28;20094;-73
2023/05/14 06:38:41;;;;;;;0.20;0.20;;;13.00;99.90;;;;;;5081441;28;20062;-81
2023/05/14 06:41:06;;;;;;;0.20;0.20;;;12.90;99.90;;;;;;5081861;28;20036;-80
2023/05/14 06:43:32;;;;;;;0.20;0.20;;;13.00;99.90;;;;;;5081522;28;20176;-78
2023/05/14 06:45:58;;;;;;;0.15;0.15;;;13.00;99.90;;;;;;5081958;28;20016;-80
2023/05/14 06:48:26;;;;;;;0.10;0.10;;;13.00;99.90;;;;;;5081220;28;20024;-87
2023/05/14 06:50:52;;;;;;;0.20;0.20;;;13.10;99.90;;;;;;5080830;28;20096;-78
2023/05/14 06:53:18;;;;;;;0.20;0.20;;;13.20;99.90;;;;;;5080667;28;20480;-83
2023/05/14 06:55:45;;;;;;;0.17;0.17;;;13.20;99.90;;;;;;5080823;28;20058;-75
2023/05/14 06:58:11;;;;;;;0.10;0.10;;;13.20;99.90;;;;;;5080672;28;20095;-78
2023/05/14 07:00:37;;;;;;;0.20;0.20;;;13.20;99.90;;;;;;5080903;28;20743;-74
2023/05/14 07:03:03;;;;;;;0.20;0.20;;;13.20;99.90;;;;;;5079343;28;20016;-75
2023/05/14 07:05:28;;;;;;;0.20;0.20;;;13.20;99.90;;;;;;5080484;28;20105;-81
2023/05/14 07:07:54;;;;;;;0.20;0.20;;;13.30;99.90;;;;;;5080835;28;20044;-74
2023/05/14 07:10:20;;;;;;;0.20;0.20;;;13.40;99.90;;;;;;5080774;28;20099;-79
2023/05/14 07:12:46;;;;;;;0.20;0.20;;;13.40;99.90;;;;;;5080692;28;20483;-83
2023/05/14 07:15:12;;;;;;;0.20;0.20;;;13.50;99.90;;;;;;5081821;28;20056;-79
2023/05/14 07:17:38;;;;;;;0.20;0.20;;;13.50;99.90;;;;;;5080954;28;20757;-73
2023/05/14 07:20:04;;;;;;;0.20;0.20;;;13.60;99.90;;;;;;5080565;28;20090;-78
2023/05/14 07:22:30;;;;;;;0.10;0.10;;;13.70;99.90;;;;;;5081011;28;20093;-79
2023/05/14 07:24:56;;;;;;;0.20;0.20;;;13.70;99.90;;;;;;5080904;28;20099;-84
2023/05/14 07:27:21;;;;;;;0.20;0.20;;;13.80;99.90;;;;;;5080970;28;20028;-78
2023/05/14 07:29:48;;;;;;;0.20;0.20;;;13.80;99.90;;;;;;5080871;28;20020;-81
2023/05/14 07:32:14;;;;;;;0.10;0.10;;;13.80;99.90;;;;;;5080386;28;20016;-79
2023/05/14 07:34:40;;;;;;;0.20;0.20;;;13.90;99.90;;;;;;5080641;28;20047;-79
2023/05/14 07:37:06;;;;;;;0.20;0.20;;;13.90;99.90;;;;;;5081164;28;20048;-84
2023/05/14 07:39:32;;;;;;;0.20;0.20;;;14.00;99.90;;;;;;5083734;28;20020;-73
2023/05/14 07:41:57;;;;;;;0.20;0.20;;;13.00;99.90;;;;;;5084110;28;20012;-82
2023/05/14 07:44:23;;;;;;;0.20;0.20;;;14.00;99.90;;;;;;5082892;28;20022;-88
2023/05/14 07:46:49;;;;;;;0.20;0.20;;;14.00;99.90;;;;;;5082483;28;20032;-76
2023/05/14 07:49:15;;;;;;;0.20;0.20;;;14.00;99.90;;;;;;5081932;28;20017;-81
2023/05/14 07:51:40;;;;;;;0.20;0.20;;;14.10;99.90;;;;;;5081221;28;20539;-84
2023/05/14 07:54:06;;;;;;;0.20;0.20;;;14.10;99.90;;;;;;5080804;28;20075;-83
2023/05/14 07:56:32;;;;;;;1.48;1.38;;;14.20;99.90;;;;;;5081230;28;20032;-77
2023/05/14 07:58:58;;;;;;;0.80;0.80;;;14.20;99.90;;;;;;5080353;28;20016;-81
2023/05/14 08:01:24;;;;;;;0.30;0.30;;;14.20;99.90;;;;;;5079856;28;20020;-77
2023/05/14 08:03:49;;;;;;;0.20;0.20;;;14.20;99.90;;;;;;5079509;28;20621;-73
2023/05/14 08:06:15;;;;;;;0.20;0.20;;;14.20;99.90;;;;;;5079256;28;20021;-80
2023/05/14 08:08:41;;;;;;;0.20;0.20;;;14.20;99.90;;;;;;5079372;28;20712;-73
2023/05/14 08:11:07;;;;;;;0.20;0.20;;;14.40;99.90;;;;;;5079338;28;20023;-76
2023/05/14 08:13:32;;;;;;;0.20;0.20;;;14.40;99.90;;;;;;5079133;28;20650;-76
2023/05/14 08:15:58;;;;;;;0.10;0.10;;;14.50;99.90;;;;;;5079571;28;20024;-74
2023/05/14 08:18:24;;;;;;;0.32;0.32;;;14.60;99.90;;;;;;5079061;28;20015;-75
2023/05/14 08:20:50;;;;;;;0.30;0.30;;;14.70;99.90;;;;;;5079087;28;20028;-76
2023/05/14 08:23:16;;;;;;;16.25;4.85;;;14.70;99.90;;;;;;5079374;28;20022;-74
2023/05/14 08:25:42;;;;;;;0.10;0.10;;;13.70;99.90;;;;;;5080377;28;20111;-73
2023/05/14 08:28:07;;;;;;;0.20;0.20;;;14.80;99.90;;;;;;5078550;28;20108;-82
2023/05/14 08:30:33;;;;;;;0.15;0.15;;;13.20;99.90;;;;;;5078718;28;20038;-75
2023/05/14 08:32:59;;;;;;;0.20;0.20;;;14.90;99.90;;;;;;5078606;28;20687;-73
2023/05/14 08:35:25;;;;;;;0.10;0.10;;;14.90;99.90;;;;;;5079113;28;20545;-75
2023/05/14 08:37:51;;;;;;;0.20;0.20;;;14.90;99.90;;;;;;5078611;28;20028;-85
2023/05/14 08:40:17;;;;;;;0.20;0.20;;;15.00;99.90;;;;;;5079327;28;20019;-81
2023/05/14 08:42:43;;;;;;;0.20;0.20;;;15.10;99.90;;;;;;5078530;28;20024;-80
2023/05/14 08:45:32;;;;;;;0.20;0.20;;;15.20;99.90;;;;;;5078596;28;20020;-76
2023/05/14 08:47:59;;;;;;;0.20;0.20;;;15.30;99.90;;;;;;5078625;28;20528;-82
2023/05/14 08:50:28;;;;;;;0.43;0.43;;;15.30;99.90;;;;;;5078794;28;20017;-83
2023/05/14 08:52:54;;;;;;;0.10;0.10;;;15.30;99.90;;;;;;5078035;28;20061;-82
2023/05/14 08:55:23;;;;;;;0.25;0.25;;;16.30;99.90;;;;;;5078846;28;20059;-85
2023/05/14 08:57:48;;;;;;;0.20;0.20;;;15.50;99.90;;;;;;5078478;28;20020;-77
2023/05/14 09:00:14;;;;;;;0.10;0.10;;;15.50;99.90;;;;;;5078696;28;20227;-78
2023/05/14 09:02:42;;;;;;;0.32;0.32;;;15.60;99.90;;;;;;5078408;28;20063;-75
2023/05/14 09:05:09;;;;;;;0.20;0.20;;;15.70;99.90;;;;;;5078562;28;20070;-72
2023/05/14 09:07:34;;;;;;;0.15;0.15;;;15.70;99.90;;;;;;5078129;28;20032;-72
2023/05/14 09:10:01;;;;;;;0.20;0.20;;;15.60;99.90;;;;;;5078143;28;20558;-73
2023/05/14 09:12:27;;;;;;;0.20;0.20;;;15.50;99.90;;;;;;5076391;28;20043;-76
2023/05/14 09:14:53;;;;;;;0.20;0.20;;;15.50;99.90;;;;;;5078333;28;20052;-85
2023/05/14 09:17:19;;;;;;;0.10;0.10;;;15.50;99.90;;;;;;5078003;28;20016;-73
2023/05/14 09:19:51;;;;;;;0.10;0.10;;;15.60;99.90;;;;;;5078135;28;20020;-81
2023/05/14 09:22:17;;;;;;;7.65;6.85;;;15.70;99.90;;;;;;5078246;28;20024;-73
2023/05/14 09:24:44;;;;;;;0.10;0.10;;;15.90;99.90;;;;;;5077045;28;20066;-83
2023/05/14 09:27:20;;;;;;;0.10;0.10;;;15.90;99.90;;;;;;5077806;28;20056;-73
2023/05/14 09:29:47;;;;;;;1.55;1.48;;;16.00;99.90;;;;;;5078202;28;20216;-80
2023/05/14 09:32:13;;;;;;;0.10;0.10;;;16.20;99.90;;;;;;5077964;28;20024;-73
2023/05/14 09:34:39;;;;;;;0.20;0.20;;;16.30;99.90;;;;;;5076797;28;20619;-79
2023/05/14 09:37:07;;;;;;;0.10;0.10;;;16.40;99.90;;;;;;5078527;28;20734;-75
2023/05/14 09:39:37;;;;;;;2.28;2.17;;;16.40;99.90;;;;;;5076557;28;20044;-73
2023/05/14 09:42:03;;;;;;;0.10;0.10;;;16.40;99.90;;;;;;5078014;28;20016;-78
2023/05/14 09:44:30;;;;;;;0.20;0.20;;;16.50;99.90;;;;;;5077710;28;20039;-79
2023/05/14 09:46:56;;;;;;;0.20;0.20;;;16.60;99.90;;;;;;5077573;28;20437;-75
2023/05/14 09:49:22;;;;;;;0.20;0.20;;;16.70;99.90;;;;;;5077876;28;20028;-79
2023/05/14 09:51:48;;;;;;;0.10;0.10;;;16.80;99.90;;;;;;5077750;28;20023;-76
2023/05/14 09:54:14;;;;;;;0.20;0.20;;;16.90;99.90;;;;;;5076906;28;20074;-78
2023/05/14 09:56:41;;;;;;;0.20;0.20;;;16.90;99.90;;;;;;5075996;28;20478;-79
2023/05/14 09:59:07;;;;;;;0.10;0.10;;;17.00;99.90;;;;;;5077270;28;20025;-78
2023/05/14 10:01:33;;;;;;;0.20;0.20;;;17.00;99.90;;;;;;5077452;28;20024;-83
2023/05/14 10:04:02;;;;;;;0.10;0.10;;;15.70;99.90;;;;;;5077272;28;20313;-76
2023/05/14 10:06:33;;;;;;;0.10;0.10;;;17.00;99.90;;;;;;5075975;28;20020;-80
2023/05/14 10:09:11;;;;;;;0.10;0.10;;;17.10;99.90;;;;;;5075457;28;20032;-78
2023/05/14 10:11:42;;;;;;;0.30;0.30;;;17.10;99.90;;;;;;5077059;28;20087;-78
2023/05/14 10:14:19;;;;;;;0.10;0.10;;;17.10;99.90;;;;;;5077021;28;20108;-79
2023/05/14 10:16:50;;;;;;;0.20;0.20;;;17.20;99.90;;;;;;5076198;28;20380;-78
2023/05/14 10:19:18;;;;;;;0.20;0.20;;;17.20;99.90;;;;;;5077148;28;20540;-81
2023/05/14 10:21:54;;;;;;;17.45;4.47;;;17.30;99.90;;;;;;5076671;28;20024;-81
2023/05/14 10:24:21;;;;;;;0.30;0.30;;;17.30;99.90;;;;;;5076902;28;20024;-76
2023/05/14 10:26:47;;;;;;;0.10;0.10;;;17.50;99.90;;;;;;5075097;28;20020;-80
2023/05/14 10:29:13;;;;;;;0.10;0.10;;;17.50;99.90;;;;;;5077033;28;20028;-77
2023/05/14 10:31:55;;;;;;;0.10;0.10;;;17.60;99.90;;;;;;5077013;28;20529;-79
2023/05/14 10:34:37;;;;;;;0.13;0.13;;;17.60;99.90;;;;;;5076959;28;20069;-77
2023/05/14 10:37:09;;;;;;;0.15;0.15;;;17.70;99.90;;;;;;5079364;28;20016;-76
2023/05/14 10:39:45;;;;;;;0.10;0.10;;;17.60;99.90;;;;;;5080580;28;20573;-74
2023/05/14 10:42:14;;;;;;;0.40;0.40;;;17.50;99.90;;;;;;5078899;28;20039;-75
2023/05/14 10:44:48;;;;;;;0.30;0.30;;;17.60;99.90;;;;;;5080168;28;20020;-73
2023/05/14 10:47:16;;;;;;;0.30;0.30;;;17.60;99.90;;;;;;5080109;28;20109;-79
2023/05/14 10:49:43;;;;;;;0.17;0.17;;;17.60;99.90;;;;;;5078733;28;20205;-77
2023/05/14 10:52:09;;;;;;;0.15;0.15;;;17.90;99.90;;;;;;5080353;28;20487;-75
2023/05/14 10:54:36;;;;;;;0.10;0.10;;;17.70;99.90;;;;;;5080019;28;20044;-79
2023/05/14 10:57:01;;;;;;;0.10;0.10;;;17.80;99.90;;;;;;5080378;28;20024;-77
2023/05/14 10:59:27;;;;;;;1.13;1.08;;;17.70;99.90;;;;;;5080501;28;20119;-77
2023/05/14 11:01:55;;;;;;;0.10;0.10;;;16.40;99.90;;;;;;5080177;28;20081;-76
2023/05/14 11:04:26;;;;;;;0.20;0.20;;;16.50;99.90;;;;;;5080629;28;20530;-77
2023/05/14 11:06:53;;;;;;;0.50;0.50;;;18.00;99.90;;;;;;5079928;28;20027;-83
2023/05/14 11:09:21;;;;;;;0.17;0.17;;;18.00;99.90;;;;;;5080716;28;20051;-76
2023/05/14 11:11:47;;;;;;;0.20;0.20;;;18.00;99.90;;;;;;5080721;28;20298;-77
2023/05/14 11:14:12;;;;;;;0.10;0.10;;;18.10;99.90;;;;;;5080217;28;20012;-77
2023/05/14 11:16:40;;;;;;;0.10;0.10;;;18.20;99.90;;;;;;5083397;28;20046;-76
2023/05/14 11:19:06;;;;;;;0.10;0.10;;;18.30;99.90;;;;;;5083605;28;20040;-81
2023/05/14 11:21:32;;;;;;;0.20;0.20;;;18.40;99.90;;;;;;5083600;28;20051;-75
2023/05/14 11:23:59;;;;;;;0.10;0.10;;;18.50;99.90;;;;;;5084038;28;20028;-80
2023/05/14 11:26:25;;;;;;;0.20;0.20;;;18.40;99.90;;;;;;5081897;28;20036;-80
2023/05/14 11:28:51;;;;;;;0.10;0.10;;;18.60;99.90;;;;;;5080133;28;20391;-74
2023/05/14 11:31:17;;;;;;;0.17;0.17;;;18.70;99.90;;;;;;5080657;28;20035;-74
2023/05/14 11:33:43;;;;;;;0.77;0.77;;;18.90;99.90;;;;;;5077821;28;20032;-73
2023/05/14 11:36:13;;;;;;;11.95;9.48;;;19.10;99.90;;;;;;5085786;28;20142;-83
2023/05/14 11:38:50;;;;;;;4.50;4.15;;;19.30;99.90;;;;;;5081752;28;20166;-82
2023/05/14 11:41:16;;;;;;;0.20;0.20;;;19.40;99.90;;;;;;5081418;28;20008;-82
2023/05/14 11:43:42;;;;;;;0.10;0.10;;;19.50;99.90;;;;;;5088715;28;20105;-84
2023/05/14 11:46:16;;;;;;;0.10;0.10;;;19.80;99.90;;;;;;5088542;28;20016;-81
2023/05/14 11:48:42;;;;;;;0.20;0.20;;;19.90;99.90;;;;;;5084972;28;20119;-79
2023/05/14 11:51:08;;;;;;;0.10;0.10;;;21.00;99.90;;;;;;5080351;28;20161;-73
2023/05/14 11:53:33;;;;;;;3.05;1.98;;;19.90;99.90;;;;;;5078041;28;20064;-85
2023/05/14 11:55:59;;;;;;;0.17;0.17;;;20.10;99.90;;;;;;5079917;28;20028;-77
2023/05/14 11:58:25;;;;;;;15.35;14.60;;;20.30;99.90;;;;;;5079431;28;20008;-79
2023/05/14 12:00:52;;;;;;;0.20;0.20;;;20.40;99.90;;;;;;5079591;28;20020;-80
2023/05/14 12:03:29;;;;;;;0.40;0.40;;;20.30;99.90;;;;;;5079799;28;20009;-79
2023/05/14 12:05:59;;;;;;;0.10;0.10;;;20.20;99.90;;;;;;5080579;28;20024;-81
2023/05/14 12:08:30;;;;;;;0.45;0.45;;;20.00;99.90;;;;;;5079683;28;20143;-75
2023/05/14 12:10:58;;;;;;;0.10;0.10;;;20.00;99.90;;;;;;5079336;28;20020;-80
2023/05/14 12:13:29;;;;;;;0.10;0.10;;;19.80;99.90;;;;;;5079750;28;20085;-75
2023/05/14 12:16:00;;;;;;;0.20;0.20;;;19.80;99.90;;;;;;5078093;28;20603;-77
2023/05/14 12:18:35;;;;;;;1.15;1.05;;;19.90;99.90;;;;;;5078185;28;20085;-73
2023/05/14 12:21:07;;;;;;;1.52;1.45;;;19.70;99.90;;;;;;5077645;28;20040;-78
2023/05/14 12:23:33;;;;;;;1.00;0.95;;;19.90;99.90;;;;;;5079926;28;20022;-80
2023/05/14 12:26:04;;;;;;;0.20;0.20;;;19.90;99.90;;;;;;5080100;28;20024;-84
2023/05/14 12:28:31;;;;;;;0.43;0.43;;;19.90;99.90;;;;;;5079823;28;20038;-81
2023/05/14 12:30:57;;;;;;;0.20;0.20;;;19.90;99.90;;;;;;5079802;28;20020;-83
2023/05/14 12:33:25;;;;;;;0.30;0.30;;;20.00;99.90;;;;;;5079907;28;20008;-76
2023/05/14 12:36:00;;;;;;;0.10;0.10;;;19.90;99.90;;;;;;5079818;28;20620;-75
2023/05/14 12:38:26;;;;;;;6.93;0.55;;;20.10;99.90;;;;;;5079159;28;20022;-84
2023/05/14 12:40:51;;;;;;;0.20;0.20;;;20.10;99.90;;;;;;5079565;28;20724;-75
2023/05/14 12:43:17;;;;;;;0.20;0.20;;;20.30;99.90;;;;;;5079380;28;20087;-78
2023/05/14 12:45:43;;;;;;;0.15;0.15;;;17.30;99.90;;;;;;5079124;28;20030;-74